sensor_id;sensor_type;location;lat;lon;timestamp;P1;durP1;ratioP1;P2;durP2;ratioP2
18387;SDS011;9320;50.256;19.026;2022-12-26T00:01:08;46.57;;;23.90;;
18387;SDS011;9320;50.256;19.026;2022-12-26T00:03:38;40.40;;;23.27;;
18387;SDS011;9320;50.256;19.026;2022-12-26T00:06:12;41.03;;;23.63;;
18387;SDS011;9320;50.256;19.026;2022-12-26T00:08:40;41.70;;;24.23;;
18387;SDS011;9320;50.256;19.026;2022-12-26T00:11:09;48.70;;;25.50;;
18387;SDS011;9320;50.256;19.026;2022-12-26T00:13:38;41.47;;;23.50;;
18387;SDS011;9320;50.256;19.026;2022-12-26T00:16:07;45.57;;;23.80;;
18387;SDS011;9320;50.256;19.026;2022-12-26T00:18:36;40.93;;;23.13;;
18387;SDS011;9320;50.256;19.026;2022-12-26T00:21:04;41.40;;;24.17;;
18387;SDS011;9320;50.256;19.026;2022-12-26T00:23:34;41.73;;;22.73;;
18387;SDS011;9320;50.256;19.026;2022-12-26T00:26:03;43.33;;;23.40;;
18387;SDS011;9320;50.256;19.026;2022-12-26T00:28:32;44.97;;;23.13;;
18387;SDS011;9320;50.256;19.026;2022-12-26T00:31:02;47.97;;;23.60;;
18387;SDS011;9320;50.256;19.026;2022-12-26T00:33:32;43.60;;;23.20;;
18387;SDS011;9320;50.256;19.026;2022-12-26T00:36:00;43.80;;;22.20;;
18387;SDS011;9320;50.256;19.026;2022-12-26T00:38:29;45.80;;;22.90;;
18387;SDS011;9320;50.256;19.026;2022-12-26T00:40:58;42.90;;;22.40;;
18387;SDS011;9320;50.256;19.026;2022-12-26T00:43:26;42.27;;;22.80;;
18387;SDS011;9320;50.256;19.026;2022-12-26T00:45:55;42.33;;;23.00;;
18387;SDS011;9320;50.256;19.026;2022-12-26T00:48:23;44.20;;;22.67;;
18387;SDS011;9320;50.256;19.026;2022-12-26T00:50:51;44.27;;;23.43;;
18387;SDS011;9320;50.256;19.026;2022-12-26T00:53:19;48.53;;;23.00;;
18387;SDS011;9320;50.256;19.026;2022-12-26T00:55:47;43.53;;;21.97;;
18387;SDS011;9320;50.256;19.026;2022-12-26T00:58:17;42.87;;;22.80;;
18387;SDS011;9320;50.256;19.026;2022-12-26T01:00:45;43.53;;;22.10;;
18387;SDS011;9320;50.256;19.026;2022-12-26T01:03:14;39.83;;;22.07;;
18387;SDS011;9320;50.256;19.026;2022-12-26T01:05:43;45.47;;;24.10;;
18387;SDS011;9320;50.256;19.026;2022-12-26T01:08:12;42.10;;;22.27;;
18387;SDS011;9320;50.256;19.026;2022-12-26T01:10:49;46.13;;;23.47;;
18387;SDS011;9320;50.256;19.026;2022-12-26T01:13:19;48.67;;;24.97;;
18387;SDS011;9320;50.256;19.026;2022-12-26T01:15:48;43.13;;;23.53;;
18387;SDS011;9320;50.256;19.026;2022-12-26T01:18:17;51.73;;;26.73;;
18387;SDS011;9320;50.256;19.026;2022-12-26T01:20:45;55.37;;;25.87;;
18387;SDS011;9320;50.256;19.026;2022-12-26T01:23:14;50.60;;;26.30;;
18387;SDS011;9320;50.256;19.026;2022-12-26T01:25:43;49.57;;;25.63;;
18387;SDS011;9320;50.256;19.026;2022-12-26T01:28:33;46.67;;;24.27;;
18387;SDS011;9320;50.256;19.026;2022-12-26T01:31:01;49.57;;;25.30;;
18387;SDS011;9320;50.256;19.026;2022-12-26T01:33:30;48.80;;;24.97;;
18387;SDS011;9320;50.256;19.026;2022-12-26T01:35:58;47.40;;;24.83;;
18387;SDS011;9320;50.256;19.026;2022-12-26T01:38:27;44.97;;;24.67;;
18387;SDS011;9320;50.256;19.026;2022-12-26T01:40:55;45.57;;;23.37;;
18387;SDS011;9320;50.256;19.026;2022-12-26T01:43:48;45.40;;;25.67;;
18387;SDS011;9320;50.256;19.026;2022-12-26T01:46:18;48.83;;;25.63;;
18387;SDS011;9320;50.256;19.026;2022-12-26T01:48:49;51.70;;;27.83;;
18387;SDS011;9320;50.256;19.026;2022-12-26T01:51:18;45.17;;;24.97;;
18387;SDS011;9320;50.256;19.026;2022-12-26T01:53:50;53.03;;;27.00;;
18387;SDS011;9320;50.256;19.026;2022-12-26T01:56:41;46.57;;;26.37;;
18387;SDS011;9320;50.256;19.026;2022-12-26T01:59:14;47.20;;;26.70;;
18387;SDS011;9320;50.256;19.026;2022-12-26T02:01:45;54.07;;;27.47;;
18387;SDS011;9320;50.256;19.026;2022-12-26T02:04:17;53.93;;;28.40;;
18387;SDS011;9320;50.256;19.026;2022-12-26T02:07:06;56.73;;;29.13;;
18387;SDS011;9320;50.256;19.026;2022-12-26T02:09:35;51.37;;;26.60;;
18387;SDS011;9320;50.256;19.026;2022-12-26T02:12:05;48.77;;;27.87;;
18387;SDS011;9320;50.256;19.026;2022-12-26T02:14:58;53.53;;;27.10;;
18387;SDS011;9320;50.256;19.026;2022-12-26T02:17:28;47.20;;;26.47;;
18387;SDS011;9320;50.256;19.026;2022-12-26T02:19:58;49.17;;;26.00;;
18387;SDS011;9320;50.256;19.026;2022-12-26T02:22:41;53.70;;;26.30;;
18387;SDS011;9320;50.256;19.026;2022-12-26T02:28:37;51.33;;;26.37;;
18387;SDS011;9320;50.256;19.026;2022-12-26T02:31:26;55.67;;;27.93;;
18387;SDS011;9320;50.256;19.026;2022-12-26T02:34:03;52.23;;;27.03;;
18387;SDS011;9320;50.256;19.026;2022-12-26T02:36:43;50.33;;;26.47;;
18387;SDS011;9320;50.256;19.026;2022-12-26T02:39:22;55.50;;;26.80;;
18387;SDS011;9320;50.256;19.026;2022-12-26T02:42:14;48.90;;;27.57;;
18387;SDS011;9320;50.256;19.026;2022-12-26T02:44:53;49.20;;;27.07;;
18387;SDS011;9320;50.256;19.026;2022-12-26T02:47:50;53.23;;;28.43;;
18387;SDS011;9320;50.256;19.026;2022-12-26T02:50:25;51.63;;;28.03;;
18387;SDS011;9320;50.256;19.026;2022-12-26T02:53:18;50.27;;;28.43;;
18387;SDS011;9320;50.256;19.026;2022-12-26T02:56:17;56.23;;;29.33;;
18387;SDS011;9320;50.256;19.026;2022-12-26T02:59:09;56.77;;;28.47;;
18387;SDS011;9320;50.256;19.026;2022-12-26T03:02:21;53.17;;;27.93;;
18387;SDS011;9320;50.256;19.026;2022-12-26T03:05:15;55.67;;;28.07;;
18387;SDS011;9320;50.256;19.026;2022-12-26T03:08:04;54.33;;;27.97;;
18387;SDS011;9320;50.256;19.026;2022-12-26T03:10:53;52.53;;;28.43;;
18387;SDS011;9320;50.256;19.026;2022-12-26T03:13:40;50.33;;;27.57;;
18387;SDS011;9320;50.256;19.026;2022-12-26T03:16:11;47.73;;;27.10;;
18387;SDS011;9320;50.256;19.026;2022-12-26T03:18:58;53.43;;;28.17;;
18387;SDS011;9320;50.256;19.026;2022-12-26T03:21:32;49.90;;;27.83;;
18387;SDS011;9320;50.256;19.026;2022-12-26T03:24:04;49.47;;;27.50;;
18387;SDS011;9320;50.256;19.026;2022-12-26T03:26:37;52.20;;;28.67;;
18387;SDS011;9320;50.256;19.026;2022-12-26T03:29:10;64.30;;;30.63;;
18387;SDS011;9320;50.256;19.026;2022-12-26T03:31:58;57.33;;;30.60;;
18387;SDS011;9320;50.256;19.026;2022-12-26T03:34:27;55.87;;;30.30;;
18387;SDS011;9320;50.256;19.026;2022-12-26T03:36:59;55.93;;;29.93;;
18387;SDS011;9320;50.256;19.026;2022-12-26T03:39:39;53.93;;;28.13;;
18387;SDS011;9320;50.256;19.026;2022-12-26T03:42:34;60.70;;;29.67;;
18387;SDS011;9320;50.256;19.026;2022-12-26T03:45:28;53.07;;;28.40;;
18387;SDS011;9320;50.256;19.026;2022-12-26T03:48:21;50.97;;;28.10;;
18387;SDS011;9320;50.256;19.026;2022-12-26T03:51:13;55.67;;;28.40;;
18387;SDS011;9320;50.256;19.026;2022-12-26T03:54:08;49.50;;;27.27;;
18387;SDS011;9320;50.256;19.026;2022-12-26T03:56:59;58.37;;;28.70;;
18387;SDS011;9320;50.256;19.026;2022-12-26T03:59:50;57.87;;;30.07;;
18387;SDS011;9320;50.256;19.026;2022-12-26T04:02:37;52.13;;;26.83;;
18387;SDS011;9320;50.256;19.026;2022-12-26T04:05:29;54.63;;;27.60;;
18387;SDS011;9320;50.256;19.026;2022-12-26T04:08:29;55.17;;;28.13;;
18387;SDS011;9320;50.256;19.026;2022-12-26T04:11:25;51.13;;;26.73;;
18387;SDS011;9320;50.256;19.026;2022-12-26T04:14:13;52.37;;;27.60;;
18387;SDS011;9320;50.256;19.026;2022-12-26T04:17:13;58.47;;;27.37;;
18387;SDS011;9320;50.256;19.026;2022-12-26T04:20:12;51.33;;;27.77;;
18387;SDS011;9320;50.256;19.026;2022-12-26T04:22:48;52.00;;;27.53;;
18387;SDS011;9320;50.256;19.026;2022-12-26T04:25:38;52.50;;;26.53;;
18387;SDS011;9320;50.256;19.026;2022-12-26T04:28:30;51.40;;;25.53;;
18387;SDS011;9320;50.256;19.026;2022-12-26T04:31:19;50.80;;;24.97;;
18387;SDS011;9320;50.256;19.026;2022-12-26T04:34:14;54.00;;;26.90;;
18387;SDS011;9320;50.256;19.026;2022-12-26T04:37:07;48.77;;;26.43;;
18387;SDS011;9320;50.256;19.026;2022-12-26T04:39:58;50.70;;;24.07;;
18387;SDS011;9320;50.256;19.026;2022-12-26T04:42:46;47.47;;;24.47;;
18387;SDS011;9320;50.256;19.026;2022-12-26T04:45:54;50.40;;;28.60;;
18387;SDS011;9320;50.256;19.026;2022-12-26T04:48:23;54.13;;;27.73;;
18387;SDS011;9320;50.256;19.026;2022-12-26T04:51:08;45.67;;;26.00;;
18387;SDS011;9320;50.256;19.026;2022-12-26T04:53:36;45.10;;;26.73;;
18387;SDS011;9320;50.256;19.026;2022-12-26T04:56:04;50.87;;;27.07;;
18387;SDS011;9320;50.256;19.026;2022-12-26T04:58:33;57.03;;;29.37;;
18387;SDS011;9320;50.256;19.026;2022-12-26T05:01:02;51.93;;;25.33;;
18387;SDS011;9320;50.256;19.026;2022-12-26T05:03:44;46.57;;;24.67;;
18387;SDS011;9320;50.256;19.026;2022-12-26T05:06:29;41.27;;;20.93;;
18387;SDS011;9320;50.256;19.026;2022-12-26T05:09:15;37.37;;;19.23;;
18387;SDS011;9320;50.256;19.026;2022-12-26T05:12:01;33.23;;;18.27;;
18387;SDS011;9320;50.256;19.026;2022-12-26T05:14:30;30.23;;;16.30;;
18387;SDS011;9320;50.256;19.026;2022-12-26T05:17:02;27.33;;;16.00;;
18387;SDS011;9320;50.256;19.026;2022-12-26T05:19:47;27.77;;;14.73;;
18387;SDS011;9320;50.256;19.026;2022-12-26T05:22:34;27.37;;;15.40;;
18387;SDS011;9320;50.256;19.026;2022-12-26T05:25:23;26.60;;;14.27;;
18387;SDS011;9320;50.256;19.026;2022-12-26T05:28:11;27.03;;;14.33;;
18387;SDS011;9320;50.256;19.026;2022-12-26T05:30:58;27.70;;;14.17;;
18387;SDS011;9320;50.256;19.026;2022-12-26T05:33:28;26.93;;;13.60;;
18387;SDS011;9320;50.256;19.026;2022-12-26T05:36:14;23.00;;;13.23;;
18387;SDS011;9320;50.256;19.026;2022-12-26T05:38:43;25.17;;;12.67;;
18387;SDS011;9320;50.256;19.026;2022-12-26T05:41:12;22.53;;;11.60;;
18387;SDS011;9320;50.256;19.026;2022-12-26T05:43:40;20.47;;;12.13;;
18387;SDS011;9320;50.256;19.026;2022-12-26T05:46:08;22.93;;;12.00;;
18387;SDS011;9320;50.256;19.026;2022-12-26T05:48:37;19.20;;;10.97;;
18387;SDS011;9320;50.256;19.026;2022-12-26T05:51:05;21.30;;;11.60;;
18387;SDS011;9320;50.256;19.026;2022-12-26T05:53:33;19.13;;;10.77;;
18387;SDS011;9320;50.256;19.026;2022-12-26T05:56:02;17.47;;;10.60;;
18387;SDS011;9320;50.256;19.026;2022-12-26T05:58:31;19.77;;;11.30;;
18387;SDS011;9320;50.256;19.026;2022-12-26T06:01:03;20.70;;;10.63;;
18387;SDS011;9320;50.256;19.026;2022-12-26T06:03:35;19.20;;;10.17;;
18387;SDS011;9320;50.256;19.026;2022-12-26T06:06:05;17.03;;;10.00;;
18387;SDS011;9320;50.256;19.026;2022-12-26T06:08:33;20.73;;;10.80;;
18387;SDS011;9320;50.256;19.026;2022-12-26T06:11:02;19.07;;;10.93;;
18387;SDS011;9320;50.256;19.026;2022-12-26T06:13:31;18.60;;;11.33;;
18387;SDS011;9320;50.256;19.026;2022-12-26T06:16:02;19.40;;;10.70;;
18387;SDS011;9320;50.256;19.026;2022-12-26T06:18:32;20.00;;;11.10;;
18387;SDS011;9320;50.256;19.026;2022-12-26T06:21:02;19.30;;;10.93;;
18387;SDS011;9320;50.256;19.026;2022-12-26T06:23:33;18.30;;;11.40;;
18387;SDS011;9320;50.256;19.026;2022-12-26T06:26:02;19.43;;;11.17;;
18387;SDS011;9320;50.256;19.026;2022-12-26T06:28:31;19.23;;;11.30;;
18387;SDS011;9320;50.256;19.026;2022-12-26T06:31:00;18.67;;;11.27;;
18387;SDS011;9320;50.256;19.026;2022-12-26T06:33:29;18.43;;;11.87;;
18387;SDS011;9320;50.256;19.026;2022-12-26T06:36:02;17.20;;;10.83;;
18387;SDS011;9320;50.256;19.026;2022-12-26T06:38:32;19.40;;;11.27;;
18387;SDS011;9320;50.256;19.026;2022-12-26T06:41:03;21.70;;;11.10;;
18387;SDS011;9320;50.256;19.026;2022-12-26T06:43:31;16.40;;;10.07;;
18387;SDS011;9320;50.256;19.026;2022-12-26T06:46:00;15.70;;;10.17;;
18387;SDS011;9320;50.256;19.026;2022-12-26T06:48:30;16.70;;;10.70;;
18387;SDS011;9320;50.256;19.026;2022-12-26T06:51:01;19.47;;;10.77;;
18387;SDS011;9320;50.256;19.026;2022-12-26T06:53:32;17.47;;;10.27;;
18387;SDS011;9320;50.256;19.026;2022-12-26T06:56:04;17.23;;;10.40;;
18387;SDS011;9320;50.256;19.026;2022-12-26T06:58:32;16.90;;;10.40;;
18387;SDS011;9320;50.256;19.026;2022-12-26T07:01:04;17.70;;;10.93;;
18387;SDS011;9320;50.256;19.026;2022-12-26T07:03:32;18.33;;;10.20;;
18387;SDS011;9320;50.256;19.026;2022-12-26T07:06:01;18.63;;;10.30;;
18387;SDS011;9320;50.256;19.026;2022-12-26T07:08:32;15.17;;;9.93;;
18387;SDS011;9320;50.256;19.026;2022-12-26T07:11:00;19.80;;;10.40;;
18387;SDS011;9320;50.256;19.026;2022-12-26T07:13:28;14.83;;;10.27;;
18387;SDS011;9320;50.256;19.026;2022-12-26T07:15:57;19.93;;;11.20;;
18387;SDS011;9320;50.256;19.026;2022-12-26T07:18:25;20.53;;;11.43;;
18387;SDS011;9320;50.256;19.026;2022-12-26T07:20:53;22.07;;;12.00;;
18387;SDS011;9320;50.256;19.026;2022-12-26T07:23:21;19.33;;;11.47;;
18387;SDS011;9320;50.256;19.026;2022-12-26T07:25:51;21.63;;;11.43;;
18387;SDS011;9320;50.256;19.026;2022-12-26T07:28:19;20.53;;;11.03;;
18387;SDS011;9320;50.256;19.026;2022-12-26T07:30:47;19.33;;;10.87;;
18387;SDS011;9320;50.256;19.026;2022-12-26T07:33:16;17.80;;;10.97;;
18387;SDS011;9320;50.256;19.026;2022-12-26T07:35:44;16.47;;;10.80;;
18387;SDS011;9320;50.256;19.026;2022-12-26T07:38:12;22.53;;;12.33;;
18387;SDS011;9320;50.256;19.026;2022-12-26T07:40:40;18.73;;;11.50;;
18387;SDS011;9320;50.256;19.026;2022-12-26T07:43:09;22.20;;;12.33;;
18387;SDS011;9320;50.256;19.026;2022-12-26T07:45:37;18.17;;;11.43;;
18387;SDS011;9320;50.256;19.026;2022-12-26T07:48:10;17.40;;;11.50;;
18387;SDS011;9320;50.256;19.026;2022-12-26T07:50:38;16.47;;;11.10;;
18387;SDS011;9320;50.256;19.026;2022-12-26T07:53:07;16.53;;;10.67;;
18387;SDS011;9320;50.256;19.026;2022-12-26T07:55:35;16.27;;;10.83;;
18387;SDS011;9320;50.256;19.026;2022-12-26T07:58:03;19.53;;;11.20;;
18387;SDS011;9320;50.256;19.026;2022-12-26T08:00:32;18.87;;;11.40;;
18387;SDS011;9320;50.256;19.026;2022-12-26T08:03:00;20.00;;;11.37;;
18387;SDS011;9320;50.256;19.026;2022-12-26T08:05:33;17.80;;;11.40;;
18387;SDS011;9320;50.256;19.026;2022-12-26T08:08:01;18.63;;;11.37;;
18387;SDS011;9320;50.256;19.026;2022-12-26T08:10:30;18.37;;;11.50;;
18387;SDS011;9320;50.256;19.026;2022-12-26T08:12:58;20.03;;;12.00;;
18387;SDS011;9320;50.256;19.026;2022-12-26T08:15:26;21.73;;;11.50;;
18387;SDS011;9320;50.256;19.026;2022-12-26T08:17:55;18.93;;;11.27;;
18387;SDS011;9320;50.256;19.026;2022-12-26T08:20:23;18.30;;;10.83;;
18387;SDS011;9320;50.256;19.026;2022-12-26T08:22:51;20.67;;;11.70;;
18387;SDS011;9320;50.256;19.026;2022-12-26T08:25:24;20.87;;;12.03;;
18387;SDS011;9320;50.256;19.026;2022-12-26T08:27:53;21.90;;;12.43;;
18387;SDS011;9320;50.256;19.026;2022-12-26T08:30:21;21.70;;;13.13;;
18387;SDS011;9320;50.256;19.026;2022-12-26T08:32:49;21.73;;;12.80;;
18387;SDS011;9320;50.256;19.026;2022-12-26T08:35:19;20.47;;;12.93;;
18387;SDS011;9320;50.256;19.026;2022-12-26T08:37:47;23.47;;;14.33;;
18387;SDS011;9320;50.256;19.026;2022-12-26T08:40:15;25.97;;;15.03;;
18387;SDS011;9320;50.256;19.026;2022-12-26T08:42:58;23.40;;;13.70;;
18387;SDS011;9320;50.256;19.026;2022-12-26T08:45:46;21.73;;;12.90;;
18387;SDS011;9320;50.256;19.026;2022-12-26T08:48:15;20.87;;;12.80;;
18387;SDS011;9320;50.256;19.026;2022-12-26T08:50:44;18.83;;;11.00;;
18387;SDS011;9320;50.256;19.026;2022-12-26T08:53:12;19.13;;;12.17;;
18387;SDS011;9320;50.256;19.026;2022-12-26T08:55:40;17.87;;;11.53;;
18387;SDS011;9320;50.256;19.026;2022-12-26T08:58:08;18.83;;;11.53;;
18387;SDS011;9320;50.256;19.026;2022-12-26T09:00:36;19.57;;;11.70;;
18387;SDS011;9320;50.256;19.026;2022-12-26T09:03:04;18.70;;;12.30;;
18387;SDS011;9320;50.256;19.026;2022-12-26T09:05:32;19.53;;;11.30;;
18387;SDS011;9320;50.256;19.026;2022-12-26T09:08:02;18.13;;;11.77;;
18387;SDS011;9320;50.256;19.026;2022-12-26T09:10:30;19.30;;;11.60;;
18387;SDS011;9320;50.256;19.026;2022-12-26T09:12:58;18.40;;;11.63;;
18387;SDS011;9320;50.256;19.026;2022-12-26T09:15:26;20.03;;;12.17;;
18387;SDS011;9320;50.256;19.026;2022-12-26T09:17:54;18.10;;;11.43;;
18387;SDS011;9320;50.256;19.026;2022-12-26T09:20:22;20.43;;;12.40;;
18387;SDS011;9320;50.256;19.026;2022-12-26T09:22:50;18.90;;;11.40;;
18387;SDS011;9320;50.256;19.026;2022-12-26T09:25:21;21.77;;;12.23;;
18387;SDS011;9320;50.256;19.026;2022-12-26T09:27:50;22.17;;;12.97;;
18387;SDS011;9320;50.256;19.026;2022-12-26T09:30:24;20.50;;;13.10;;
18387;SDS011;9320;50.256;19.026;2022-12-26T09:32:53;24.87;;;14.73;;
18387;SDS011;9320;50.256;19.026;2022-12-26T09:35:21;24.17;;;14.23;;
18387;SDS011;9320;50.256;19.026;2022-12-26T09:37:49;25.33;;;13.83;;
18387;SDS011;9320;50.256;19.026;2022-12-26T09:40:22;23.70;;;13.07;;
18387;SDS011;9320;50.256;19.026;2022-12-26T09:42:57;25.07;;;13.50;;
18387;SDS011;9320;50.256;19.026;2022-12-26T09:45:39;19.20;;;12.23;;
18387;SDS011;9320;50.256;19.026;2022-12-26T09:48:17;22.43;;;12.97;;
18387;SDS011;9320;50.256;19.026;2022-12-26T09:50:51;22.90;;;13.33;;
18387;SDS011;9320;50.256;19.026;2022-12-26T09:53:22;23.03;;;14.13;;
18387;SDS011;9320;50.256;19.026;2022-12-26T09:55:57;26.73;;;15.07;;
18387;SDS011;9320;50.256;19.026;2022-12-26T09:58:28;24.07;;;14.20;;
18387;SDS011;9320;50.256;19.026;2022-12-26T10:00:59;24.57;;;14.07;;
18387;SDS011;9320;50.256;19.026;2022-12-26T10:03:31;23.83;;;13.07;;
18387;SDS011;9320;50.256;19.026;2022-12-26T10:06:09;20.73;;;12.87;;
18387;SDS011;9320;50.256;19.026;2022-12-26T10:09:00;22.10;;;12.03;;
18387;SDS011;9320;50.256;19.026;2022-12-26T10:11:42;18.30;;;11.60;;
18387;SDS011;9320;50.256;19.026;2022-12-26T10:14:28;21.50;;;12.10;;
18387;SDS011;9320;50.256;19.026;2022-12-26T10:17:04;22.37;;;12.90;;
18387;SDS011;9320;50.256;19.026;2022-12-26T10:19:43;22.13;;;12.40;;
18387;SDS011;9320;50.256;19.026;2022-12-26T10:22:25;20.70;;;12.73;;
18387;SDS011;9320;50.256;19.026;2022-12-26T10:25:07;23.67;;;13.20;;
18387;SDS011;9320;50.256;19.026;2022-12-26T10:27:44;21.13;;;12.83;;
18387;SDS011;9320;50.256;19.026;2022-12-26T10:30:18;24.67;;;13.20;;
18387;SDS011;9320;50.256;19.026;2022-12-26T10:32:49;25.00;;;13.50;;
18387;SDS011;9320;50.256;19.026;2022-12-26T10:35:22;20.63;;;12.90;;
18387;SDS011;9320;50.256;19.026;2022-12-26T10:37:56;22.60;;;13.70;;
18387;SDS011;9320;50.256;19.026;2022-12-26T10:40:33;25.47;;;14.40;;
18387;SDS011;9320;50.256;19.026;2022-12-26T10:43:13;23.57;;;13.47;;
18387;SDS011;9320;50.256;19.026;2022-12-26T10:45:59;26.90;;;14.20;;
18387;SDS011;9320;50.256;19.026;2022-12-26T10:48:42;22.87;;;11.90;;
18387;SDS011;9320;50.256;19.026;2022-12-26T10:51:10;19.77;;;11.50;;
18387;SDS011;9320;50.256;19.026;2022-12-26T10:53:39;19.43;;;12.10;;
18387;SDS011;9320;50.256;19.026;2022-12-26T10:56:09;17.97;;;11.20;;
18387;SDS011;9320;50.256;19.026;2022-12-26T10:58:44;20.57;;;12.23;;
18387;SDS011;9320;50.256;19.026;2022-12-26T11:01:28;24.37;;;12.90;;
18387;SDS011;9320;50.256;19.026;2022-12-26T11:03:59;19.33;;;11.07;;
18387;SDS011;9320;50.256;19.026;2022-12-26T11:06:30;22.37;;;12.20;;
18387;SDS011;9320;50.256;19.026;2022-12-26T11:09:00;21.00;;;12.93;;
18387;SDS011;9320;50.256;19.026;2022-12-26T11:11:29;21.33;;;12.33;;
18387;SDS011;9320;50.256;19.026;2022-12-26T11:14:25;20.93;;;12.27;;
18387;SDS011;9320;50.256;19.026;2022-12-26T11:17:00;21.77;;;11.47;;
18387;SDS011;9320;50.256;19.026;2022-12-26T11:19:32;21.47;;;11.90;;
18387;SDS011;9320;50.256;19.026;2022-12-26T11:27:44;23.30;;;12.47;;
18387;SDS011;9320;50.256;19.026;2022-12-26T11:30:19;22.93;;;12.77;;
18387;SDS011;9320;50.256;19.026;2022-12-26T11:32:51;21.20;;;12.30;;
18387;SDS011;9320;50.256;19.026;2022-12-26T11:35:44;23.13;;;13.10;;
18387;SDS011;9320;50.256;19.026;2022-12-26T11:38:16;21.13;;;13.57;;
18387;SDS011;9320;50.256;19.026;2022-12-26T11:41:12;18.70;;;12.50;;
18387;SDS011;9320;50.256;19.026;2022-12-26T11:43:58;21.77;;;12.80;;
18387;SDS011;9320;50.256;19.026;2022-12-26T11:46:31;20.13;;;12.20;;
18387;SDS011;9320;50.256;19.026;2022-12-26T11:49:03;19.70;;;11.40;;
18387;SDS011;9320;50.256;19.026;2022-12-26T11:51:37;19.80;;;11.83;;
18387;SDS011;9320;50.256;19.026;2022-12-26T11:54:17;22.03;;;12.23;;
18387;SDS011;9320;50.256;19.026;2022-12-26T11:57:07;19.40;;;11.97;;
18387;SDS011;9320;50.256;19.026;2022-12-26T11:59:38;21.27;;;12.27;;
18387;SDS011;9320;50.256;19.026;2022-12-26T12:02:17;26.07;;;14.43;;
18387;SDS011;9320;50.256;19.026;2022-12-26T12:04:52;25.07;;;12.87;;
18387;SDS011;9320;50.256;19.026;2022-12-26T12:07:27;22.40;;;13.23;;
18387;SDS011;9320;50.256;19.026;2022-12-26T12:10:11;18.77;;;10.87;;
18387;SDS011;9320;50.256;19.026;2022-12-26T12:12:54;20.07;;;11.77;;
18387;SDS011;9320;50.256;19.026;2022-12-26T12:15:30;19.50;;;11.50;;
18387;SDS011;9320;50.256;19.026;2022-12-26T12:18:04;18.90;;;11.23;;
18387;SDS011;9320;50.256;19.026;2022-12-26T12:20:38;16.87;;;11.53;;
18387;SDS011;9320;50.256;19.026;2022-12-26T12:23:21;17.03;;;11.13;;
18387;SDS011;9320;50.256;19.026;2022-12-26T12:26:02;20.87;;;11.83;;
18387;SDS011;9320;50.256;19.026;2022-12-26T12:28:50;21.00;;;12.33;;
18387;SDS011;9320;50.256;19.026;2022-12-26T12:31:37;19.37;;;11.90;;
18387;SDS011;9320;50.256;19.026;2022-12-26T12:34:16;19.03;;;11.23;;
18387;SDS011;9320;50.256;19.026;2022-12-26T12:36:54;18.67;;;11.97;;
18387;SDS011;9320;50.256;19.026;2022-12-26T12:39:34;19.03;;;11.93;;
18387;SDS011;9320;50.256;19.026;2022-12-26T12:42:14;16.30;;;10.57;;
18387;SDS011;9320;50.256;19.026;2022-12-26T12:44:59;16.40;;;10.80;;
18387;SDS011;9320;50.256;19.026;2022-12-26T12:47:49;18.23;;;10.80;;
18387;SDS011;9320;50.256;19.026;2022-12-26T12:50:27;21.37;;;11.80;;
18387;SDS011;9320;50.256;19.026;2022-12-26T12:52:59;18.90;;;11.23;;
18387;SDS011;9320;50.256;19.026;2022-12-26T12:55:54;20.37;;;12.50;;
18387;SDS011;9320;50.256;19.026;2022-12-26T12:58:36;23.17;;;12.33;;
18387;SDS011;9320;50.256;19.026;2022-12-26T13:01:10;18.47;;;11.73;;
18387;SDS011;9320;50.256;19.026;2022-12-26T13:03:44;19.60;;;12.63;;
18387;SDS011;9320;50.256;19.026;2022-12-26T13:06:19;19.37;;;11.93;;
18387;SDS011;9320;50.256;19.026;2022-12-26T13:08:53;20.77;;;12.00;;
18387;SDS011;9320;50.256;19.026;2022-12-26T13:11:24;20.37;;;12.53;;
18387;SDS011;9320;50.256;19.026;2022-12-26T13:13:55;20.20;;;12.73;;
18387;SDS011;9320;50.256;19.026;2022-12-26T13:16:30;20.57;;;12.57;;
18387;SDS011;9320;50.256;19.026;2022-12-26T13:19:10;26.30;;;12.87;;
18387;SDS011;9320;50.256;19.026;2022-12-26T13:21:42;19.37;;;11.73;;
18387;SDS011;9320;50.256;19.026;2022-12-26T13:24:12;19.40;;;11.10;;
18387;SDS011;9320;50.256;19.026;2022-12-26T13:26:52;15.80;;;11.00;;
18387;SDS011;9320;50.256;19.026;2022-12-26T13:29:30;18.57;;;12.03;;
18387;SDS011;9320;50.256;19.026;2022-12-26T13:32:04;16.80;;;11.50;;
18387;SDS011;9320;50.256;19.026;2022-12-26T13:34:42;16.27;;;11.47;;
18387;SDS011;9320;50.256;19.026;2022-12-26T13:40:21;16.57;;;10.53;;
18387;SDS011;9320;50.256;19.026;2022-12-26T13:42:53;19.50;;;11.23;;
18387;SDS011;9320;50.256;19.026;2022-12-26T13:51:50;19.23;;;11.17;;
18387;SDS011;9320;50.256;19.026;2022-12-26T13:54:20;17.90;;;11.80;;
18387;SDS011;9320;50.256;19.026;2022-12-26T13:57:05;18.50;;;10.93;;
18387;SDS011;9320;50.256;19.026;2022-12-26T14:00:13;19.50;;;11.37;;
18387;SDS011;9320;50.256;19.026;2022-12-26T14:05:55;21.00;;;11.53;;
18387;SDS011;9320;50.256;19.026;2022-12-26T14:08:42;20.70;;;12.53;;
18387;SDS011;9320;50.256;19.026;2022-12-26T14:11:25;19.43;;;11.47;;
18387;SDS011;9320;50.256;19.026;2022-12-26T14:14:09;20.23;;;11.30;;
18387;SDS011;9320;50.256;19.026;2022-12-26T14:16:48;19.20;;;11.53;;
18387;SDS011;9320;50.256;19.026;2022-12-26T14:19:29;19.03;;;11.03;;
18387;SDS011;9320;50.256;19.026;2022-12-26T14:22:05;18.87;;;11.67;;
18387;SDS011;9320;50.256;19.026;2022-12-26T14:24:43;17.83;;;11.20;;
18387;SDS011;9320;50.256;19.026;2022-12-26T14:27:24;17.90;;;11.10;;
18387;SDS011;9320;50.256;19.026;2022-12-26T14:30:04;17.77;;;11.17;;
18387;SDS011;9320;50.256;19.026;2022-12-26T14:32:46;18.40;;;11.23;;
18387;SDS011;9320;50.256;19.026;2022-12-26T14:35:28;20.77;;;11.23;;
18387;SDS011;9320;50.256;19.026;2022-12-26T14:38:04;19.20;;;11.50;;
18387;SDS011;9320;50.256;19.026;2022-12-26T14:40:57;19.83;;;12.50;;
18387;SDS011;9320;50.256;19.026;2022-12-26T14:43:30;17.93;;;11.03;;
18387;SDS011;9320;50.256;19.026;2022-12-26T14:46:00;19.80;;;12.03;;
18387;SDS011;9320;50.256;19.026;2022-12-26T14:51:31;20.73;;;12.67;;
18387;SDS011;9320;50.256;19.026;2022-12-26T15:03:26;21.70;;;12.47;;
18387;SDS011;9320;50.256;19.026;2022-12-26T15:06:35;20.27;;;12.03;;
18387;SDS011;9320;50.256;19.026;2022-12-26T15:09:39;20.27;;;11.70;;
18387;SDS011;9320;50.256;19.026;2022-12-26T15:12:26;22.57;;;12.03;;
18387;SDS011;9320;50.256;19.026;2022-12-26T15:15:31;17.43;;;11.10;;
18387;SDS011;9320;50.256;19.026;2022-12-26T15:18:12;19.37;;;11.33;;
18387;SDS011;9320;50.256;19.026;2022-12-26T15:24:09;19.37;;;12.23;;
18387;SDS011;9320;50.256;19.026;2022-12-26T15:30:46;20.63;;;12.13;;
18387;SDS011;9320;50.256;19.026;2022-12-26T15:33:34;21.97;;;12.67;;
18387;SDS011;9320;50.256;19.026;2022-12-26T15:36:06;19.67;;;11.73;;
18387;SDS011;9320;50.256;19.026;2022-12-26T15:38:46;21.57;;;11.40;;
18387;SDS011;9320;50.256;19.026;2022-12-26T15:41:23;15.90;;;11.17;;
18387;SDS011;9320;50.256;19.026;2022-12-26T15:44:02;21.67;;;12.43;;
18387;SDS011;9320;50.256;19.026;2022-12-26T15:46:47;18.93;;;11.00;;
18387;SDS011;9320;50.256;19.026;2022-12-26T15:49:27;17.97;;;11.33;;
18387;SDS011;9320;50.256;19.026;2022-12-26T15:52:24;18.47;;;11.37;;
18387;SDS011;9320;50.256;19.026;2022-12-26T15:55:09;19.67;;;11.47;;